sensor_id;sensor_type;location;lat;lon;timestamp;P1;durP1;ratioP1;P2;durP2;ratioP2
4692;SDS011;11710;48.024;16.296;2023-07-31T04:01:59;3.53;;;3.10;;
4692;SDS011;11710;48.024;16.296;2023-07-31T04:04:27;6.20;;;2.87;;
4692;SDS011;11710;48.024;16.296;2023-07-31T04:06:54;2.87;;;2.57;;
4692;SDS011;11710;48.024;16.296;2023-07-31T04:09:21;3.00;;;2.50;;
4692;SDS011;11710;48.024;16.296;2023-07-31T04:11:49;3.37;;;2.80;;
4692;SDS011;11710;48.024;16.296;2023-07-31T04:14:16;3.40;;;2.80;;
4692;SDS011;11710;48.024;16.296;2023-07-31T04:16:44;2.73;;;2.53;;
4692;SDS011;11710;48.024;16.296;2023-07-31T04:19:12;5.10;;;2.40;;
4692;SDS011;11710;48.024;16.296;2023-07-31T04:21:42;2.80;;;2.50;;
4692;SDS011;11710;48.024;16.296;2023-07-31T04:24:09;3.33;;;2.67;;
4692;SDS011;11710;48.024;16.296;2023-07-31T04:26:36;3.80;;;2.80;;
4692;SDS011;11710;48.024;16.296;2023-07-31T04:29:04;3.60;;;2.60;;
4692;SDS011;11710;48.024;16.296;2023-07-31T04:31:31;3.60;;;2.30;;
4692;SDS011;11710;48.024;16.296;2023-07-31T04:33:59;2.60;;;2.40;;
4692;SDS011;11710;48.024;16.296;2023-07-31T04:36:27;3.27;;;2.97;;
4692;SDS011;11710;48.024;16.296;2023-07-31T04:38:55;2.80;;;2.50;;
4692;SDS011;11710;48.024;16.296;2023-07-31T04:41:22;4.10;;;2.97;;
4692;SDS011;11710;48.024;16.296;2023-07-31T04:43:49;3.37;;;2.67;;
4692;SDS011;11710;48.024;16.296;2023-07-31T04:46:17;4.30;;;2.97;;
4692;SDS011;11710;48.024;16.296;2023-07-31T04:48:44;4.40;;;2.70;;
4692;SDS011;11710;48.024;16.296;2023-07-31T04:51:12;2.90;;;2.70;;
4692;SDS011;11710;48.024;16.296;2023-07-31T04:53:40;3.10;;;2.80;;
4692;SDS011;11710;48.024;16.296;2023-07-31T04:56:08;4.10;;;3.10;;
4692;SDS011;11710;48.024;16.296;2023-07-31T04:58:35;3.77;;;2.93;;
4692;SDS011;11710;48.024;16.296;2023-07-31T05:01:03;3.97;;;2.70;;
4692;SDS011;11710;48.024;16.296;2023-07-31T05:03:30;2.60;;;2.37;;
4692;SDS011;11710;48.024;16.296;2023-07-31T05:05:57;3.97;;;2.80;;
4692;SDS011;11710;48.024;16.296;2023-07-31T05:08:25;4.00;;;2.50;;
4692;SDS011;11710;48.024;16.296;2023-07-31T05:10:54;2.60;;;2.40;;
4692;SDS011;11710;48.024;16.296;2023-07-31T05:13:21;3.73;;;2.40;;
4692;SDS011;11710;48.024;16.296;2023-07-31T05:15:48;3.53;;;2.47;;
4692;SDS011;11710;48.024;16.296;2023-07-31T05:18:16;2.70;;;2.50;;
4692;SDS011;11710;48.024;16.296;2023-07-31T05:20:43;2.93;;;2.67;;
4692;SDS011;11710;48.024;16.296;2023-07-31T05:23:10;3.20;;;2.47;;
4692;SDS011;11710;48.024;16.296;2023-07-31T05:25:38;2.77;;;2.47;;
4692;SDS011;11710;48.024;16.296;2023-07-31T05:28:07;3.73;;;2.87;;
4692;SDS011;11710;48.024;16.296;2023-07-31T05:30:34;5.53;;;2.50;;
4692;SDS011;11710;48.024;16.296;2023-07-31T05:33:01;2.80;;;2.43;;
4692;SDS011;11710;48.024;16.296;2023-07-31T05:35:29;2.40;;;2.20;;
4692;SDS011;11710;48.024;16.296;2023-07-31T05:37:56;5.67;;;2.47;;
4692;SDS011;11710;48.024;16.296;2023-07-31T05:40:24;2.40;;;2.20;;
4692;SDS011;11710;48.024;16.296;2023-07-31T05:42:51;2.47;;;2.27;;
4692;SDS011;11710;48.024;16.296;2023-07-31T05:45:20;2.23;;;2.03;;
4692;SDS011;11710;48.024;16.296;2023-07-31T05:47:47;6.27;;;2.50;;
4692;SDS011;11710;48.024;16.296;2023-07-31T05:50:15;3.03;;;2.70;;
4692;SDS011;11710;48.024;16.296;2023-07-31T05:52:42;2.90;;;2.60;;
4692;SDS011;11710;48.024;16.296;2023-07-31T05:55:10;2.50;;;2.30;;
4692;SDS011;11710;48.024;16.296;2023-07-31T05:57:37;2.67;;;2.47;;
4692;SDS011;11710;48.024;16.296;2023-07-31T06:00:05;2.43;;;2.23;;
4692;SDS011;11710;48.024;16.296;2023-07-31T06:02:34;3.30;;;2.30;;
4692;SDS011;11710;48.024;16.296;2023-07-31T06:05:03;3.17;;;2.63;;
4692;SDS011;11710;48.024;16.296;2023-07-31T06:07:31;3.40;;;2.37;;
4692;SDS011;11710;48.024;16.296;2023-07-31T06:09:59;2.80;;;2.37;;
4692;SDS011;11710;48.024;16.296;2023-07-31T06:12:30;4.50;;;2.10;;
4692;SDS011;11710;48.024;16.296;2023-07-31T06:14:57;2.60;;;2.23;;
4692;SDS011;11710;48.024;16.296;2023-07-31T06:17:24;2.97;;;1.97;;
4692;SDS011;11710;48.024;16.296;2023-07-31T06:19:53;2.40;;;2.10;;
4692;SDS011;11710;48.024;16.296;2023-07-31T06:22:21;3.70;;;2.60;;
4692;SDS011;11710;48.024;16.296;2023-07-31T06:24:48;2.50;;;2.30;;
4692;SDS011;11710;48.024;16.296;2023-07-31T06:27:16;2.70;;;2.40;;
4692;SDS011;11710;48.024;16.296;2023-07-31T06:29:43;2.83;;;2.40;;
4692;SDS011;11710;48.024;16.296;2023-07-31T06:32:11;2.40;;;2.20;;
4692;SDS011;11710;48.024;16.296;2023-07-31T06:34:38;3.50;;;2.60;;
4692;SDS011;11710;48.024;16.296;2023-07-31T06:37:07;3.50;;;2.17;;
4692;SDS011;11710;48.024;16.296;2023-07-31T06:39:35;2.60;;;2.30;;
4692;SDS011;11710;48.024;16.296;2023-07-31T06:42:02;2.67;;;2.37;;
4692;SDS011;11710;48.024;16.296;2023-07-31T06:44:30;2.20;;;2.00;;
4692;SDS011;11710;48.024;16.296;2023-07-31T06:46:57;3.57;;;2.30;;
4692;SDS011;11710;48.024;16.296;2023-07-31T06:49:25;2.30;;;2.10;;
4692;SDS011;11710;48.024;16.296;2023-07-31T06:51:52;3.27;;;2.17;;
4692;SDS011;11710;48.024;16.296;2023-07-31T06:54:21;4.50;;;2.40;;
4692;SDS011;11710;48.024;16.296;2023-07-31T06:56:49;3.03;;;2.20;;
4692;SDS011;11710;48.024;16.296;2023-07-31T06:59:16;3.33;;;1.93;;
4692;SDS011;11710;48.024;16.296;2023-07-31T07:01:43;3.00;;;2.50;;
4692;SDS011;11710;48.024;16.296;2023-07-31T07:04:11;2.60;;;2.03;;
4692;SDS011;11710;48.024;16.296;2023-07-31T07:06:38;3.40;;;2.40;;
4692;SDS011;11710;48.024;16.296;2023-07-31T07:09:06;5.10;;;2.23;;
4692;SDS011;11710;48.024;16.296;2023-07-31T07:11:34;6.00;;;2.40;;
4692;SDS011;11710;48.024;16.296;2023-07-31T07:14:02;2.73;;;2.20;;
4692;SDS011;11710;48.024;16.296;2023-07-31T07:16:30;2.40;;;2.13;;
4692;SDS011;11710;48.024;16.296;2023-07-31T07:18:57;6.90;;;2.33;;
4692;SDS011;11710;48.024;16.296;2023-07-31T07:21:24;2.60;;;2.00;;
4692;SDS011;11710;48.024;16.296;2023-07-31T07:23:51;9.07;;;2.30;;
4692;SDS011;11710;48.024;16.296;2023-07-31T07:26:18;3.40;;;2.20;;
4692;SDS011;11710;48.024;16.296;2023-07-31T07:28:47;2.00;;;1.80;;
4692;SDS011;11710;48.024;16.296;2023-07-31T07:31:15;3.90;;;2.00;;
4692;SDS011;11710;48.024;16.296;2023-07-31T07:33:42;2.47;;;2.10;;
4692;SDS011;11710;48.024;16.296;2023-07-31T07:36:09;2.57;;;2.37;;
4692;SDS011;11710;48.024;16.296;2023-07-31T07:38:38;3.27;;;2.20;;
4692;SDS011;11710;48.024;16.296;2023-07-31T07:41:06;3.00;;;2.03;;
4692;SDS011;11710;48.024;16.296;2023-07-31T07:43:34;4.40;;;2.47;;
4692;SDS011;11710;48.024;16.296;2023-07-31T07:46:03;2.20;;;2.00;;
4692;SDS011;11710;48.024;16.296;2023-07-31T07:48:30;2.80;;;2.13;;
4692;SDS011;11710;48.024;16.296;2023-07-31T07:50:57;2.97;;;2.10;;
4692;SDS011;11710;48.024;16.296;2023-07-31T07:53:25;2.40;;;2.20;;
4692;SDS011;11710;48.024;16.296;2023-07-31T07:55:52;2.93;;;1.87;;
4692;SDS011;11710;48.024;16.296;2023-07-31T07:58:20;2.87;;;2.10;;
4692;SDS011;11710;48.024;16.296;2023-07-31T08:00:50;2.53;;;1.90;;
4692;SDS011;11710;48.024;16.296;2023-07-31T08:03:19;2.20;;;2.00;;
4692;SDS011;11710;48.024;16.296;2023-07-31T08:05:47;2.47;;;1.80;;
4692;SDS011;11710;48.024;16.296;2023-07-31T08:08:14;4.63;;;2.00;;
4692;SDS011;11710;48.024;16.296;2023-07-31T08:10:42;2.03;;;1.83;;
4692;SDS011;11710;48.024;16.296;2023-07-31T08:13:11;2.10;;;1.60;;
4692;SDS011;11710;48.024;16.296;2023-07-31T08:15:40;1.90;;;1.80;;
4692;SDS011;11710;48.024;16.296;2023-07-31T08:18:08;2.30;;;1.90;;
4692;SDS011;11710;48.024;16.296;2023-07-31T08:20:38;4.23;;;1.90;;
4692;SDS011;11710;48.024;16.296;2023-07-31T08:23:05;1.97;;;1.70;;
4692;SDS011;11710;48.024;16.296;2023-07-31T08:25:34;3.60;;;2.30;;
4692;SDS011;11710;48.024;16.296;2023-07-31T08:28:02;3.73;;;2.33;;
4692;SDS011;11710;48.024;16.296;2023-07-31T08:30:29;3.60;;;2.33;;
4692;SDS011;11710;48.024;16.296;2023-07-31T08:32:57;5.53;;;2.13;;
4692;SDS011;11710;48.024;16.296;2023-07-31T08:35:24;3.30;;;2.17;;
4692;SDS011;11710;48.024;16.296;2023-07-31T08:37:54;2.60;;;2.00;;
4692;SDS011;11710;48.024;16.296;2023-07-31T08:40:22;2.30;;;2.10;;
4692;SDS011;11710;48.024;16.296;2023-07-31T08:42:51;2.53;;;2.20;;
4692;SDS011;11710;48.024;16.296;2023-07-31T08:45:19;2.67;;;2.10;;
4692;SDS011;11710;48.024;16.296;2023-07-31T08:47:47;3.23;;;2.03;;
4692;SDS011;11710;48.024;16.296;2023-07-31T08:50:16;4.50;;;1.93;;
4692;SDS011;11710;48.024;16.296;2023-07-31T08:52:44;2.40;;;2.00;;
4692;SDS011;11710;48.024;16.296;2023-07-31T08:55:13;3.70;;;2.20;;
4692;SDS011;11710;48.024;16.296;2023-07-31T08:57:40;3.60;;;1.90;;
4692;SDS011;11710;48.024;16.296;2023-07-31T09:00:09;3.13;;;2.00;;
4692;SDS011;11710;48.024;16.296;2023-07-31T09:02:37;2.20;;;2.00;;
4692;SDS011;11710;48.024;16.296;2023-07-31T09:05:05;5.23;;;2.13;;
4692;SDS011;11710;48.024;16.296;2023-07-31T09:07:34;2.43;;;1.90;;
4692;SDS011;11710;48.024;16.296;2023-07-31T09:10:02;2.60;;;2.07;;
4692;SDS011;11710;48.024;16.296;2023-07-31T09:12:31;2.70;;;1.77;;
4692;SDS011;11710;48.024;16.296;2023-07-31T09:14:58;1.90;;;1.70;;
4692;SDS011;11710;48.024;16.296;2023-07-31T09:17:29;4.80;;;2.60;;
4692;SDS011;11710;48.024;16.296;2023-07-31T09:19:57;2.10;;;1.70;;
4692;SDS011;11710;48.024;16.296;2023-07-31T09:22:31;2.00;;;1.67;;
4692;SDS011;11710;48.024;16.296;2023-07-31T09:25:04;3.47;;;2.30;;
4692;SDS011;11710;48.024;16.296;2023-07-31T09:27:54;2.70;;;2.40;;
4692;SDS011;11710;48.024;16.296;2023-07-31T09:30:21;7.30;;;2.43;;
4692;SDS011;11710;48.024;16.296;2023-07-31T09:32:49;3.17;;;1.90;;
4692;SDS011;11710;48.024;16.296;2023-07-31T09:35:20;2.00;;;1.80;;
4692;SDS011;11710;48.024;16.296;2023-07-31T09:37:48;3.50;;;2.00;;
4692;SDS011;11710;48.024;16.296;2023-07-31T09:40:26;2.63;;;2.20;;
4692;SDS011;11710;48.024;16.296;2023-07-31T09:42:57;3.53;;;2.30;;
4692;SDS011;11710;48.024;16.296;2023-07-31T09:45:25;2.23;;;2.03;;
4692;SDS011;11710;48.024;16.296;2023-07-31T09:47:53;4.07;;;2.03;;
4692;SDS011;11710;48.024;16.296;2023-07-31T09:50:21;3.33;;;2.63;;
4692;SDS011;11710;48.024;16.296;2023-07-31T09:52:49;5.23;;;2.43;;
4692;SDS011;11710;48.024;16.296;2023-07-31T09:55:17;3.47;;;2.17;;
4692;SDS011;11710;48.024;16.296;2023-07-31T09:57:45;3.17;;;1.80;;
4692;SDS011;11710;48.024;16.296;2023-07-31T10:00:14;2.63;;;2.10;;
4692;SDS011;11710;48.024;16.296;2023-07-31T10:02:44;3.23;;;2.00;;
4692;SDS011;11710;48.024;16.296;2023-07-31T10:05:12;2.80;;;2.10;;
4692;SDS011;11710;48.024;16.296;2023-07-31T10:07:41;4.57;;;2.40;;
4692;SDS011;11710;48.024;16.296;2023-07-31T10:10:09;4.30;;;2.73;;
4692;SDS011;11710;48.024;16.296;2023-07-31T10:12:37;2.40;;;2.10;;
4692;SDS011;11710;48.024;16.296;2023-07-31T10:15:05;2.90;;;2.33;;
4692;SDS011;11710;48.024;16.296;2023-07-31T10:17:34;6.43;;;2.50;;
4692;SDS011;11710;48.024;16.296;2023-07-31T10:20:03;3.83;;;2.50;;
4692;SDS011;11710;48.024;16.296;2023-07-31T10:22:31;3.57;;;2.63;;
4692;SDS011;11710;48.024;16.296;2023-07-31T10:24:59;3.97;;;2.33;;
4692;SDS011;11710;48.024;16.296;2023-07-31T10:27:26;4.73;;;2.37;;
4692;SDS011;11710;48.024;16.296;2023-07-31T10:29:54;2.00;;;1.80;;
4692;SDS011;11710;48.024;16.296;2023-07-31T10:32:22;2.30;;;1.80;;
4692;SDS011;11710;48.024;16.296;2023-07-31T10:34:52;2.27;;;1.70;;
4692;SDS011;11710;48.024;16.296;2023-07-31T10:37:24;14.40;;;5.13;;
4692;SDS011;11710;48.024;16.296;2023-07-31T10:39:59;3.83;;;2.33;;
4692;SDS011;11710;48.024;16.296;2023-07-31T10:42:28;6.00;;;4.07;;
4692;SDS011;11710;48.024;16.296;2023-07-31T10:44:57;3.50;;;3.00;;
4692;SDS011;11710;48.024;16.296;2023-07-31T10:47:25;2.53;;;2.17;;
4692;SDS011;11710;48.024;16.296;2023-07-31T10:49:56;6.10;;;3.30;;
4692;SDS011;11710;48.024;16.296;2023-07-31T10:52:37;3.83;;;2.10;;
4692;SDS011;11710;48.024;16.296;2023-07-31T10:55:15;3.77;;;2.10;;
4692;SDS011;11710;48.024;16.296;2023-07-31T10:57:44;2.00;;;1.80;;
4692;SDS011;11710;48.024;16.296;2023-07-31T11:00:19;2.30;;;1.80;;
4692;SDS011;11710;48.024;16.296;2023-07-31T11:02:56;4.83;;;2.20;;
4692;SDS011;11710;48.024;16.296;2023-07-31T11:08:11;2.77;;;2.20;;
4692;SDS011;11710;48.024;16.296;2023-07-31T11:10:39;5.50;;;2.83;;
4692;SDS011;11710;48.024;16.296;2023-07-31T11:13:06;2.33;;;1.80;;
4692;SDS011;11710;48.024;16.296;2023-07-31T11:15:33;2.60;;;1.80;;
4692;SDS011;11710;48.024;16.296;2023-07-31T11:18:01;3.13;;;2.27;;
4692;SDS011;11710;48.024;16.296;2023-07-31T11:20:31;4.03;;;2.70;;
4692;SDS011;11710;48.024;16.296;2023-07-31T11:22:59;4.63;;;2.60;;
4692;SDS011;11710;48.024;16.296;2023-07-31T11:25:30;4.00;;;2.80;;
4692;SDS011;11710;48.024;16.296;2023-07-31T11:28:01;3.90;;;2.20;;
4692;SDS011;11710;48.024;16.296;2023-07-31T11:30:28;5.33;;;2.60;;
4692;SDS011;11710;48.024;16.296;2023-07-31T11:32:56;3.47;;;2.40;;
4692;SDS011;11710;48.024;16.296;2023-07-31T11:35:23;2.17;;;1.80;;
4692;SDS011;11710;48.024;16.296;2023-07-31T11:37:51;2.30;;;2.10;;
4692;SDS011;11710;48.024;16.296;2023-07-31T11:40:18;2.30;;;2.10;;
4692;SDS011;11710;48.024;16.296;2023-07-31T11:42:47;3.97;;;2.13;;
4692;SDS011;11710;48.024;16.296;2023-07-31T11:45:15;4.33;;;2.10;;
4692;SDS011;11710;48.024;16.296;2023-07-31T11:47:42;3.83;;;2.33;;
4692;SDS011;11710;48.024;16.296;2023-07-31T11:50:11;4.47;;;2.63;;
4692;SDS011;11710;48.024;16.296;2023-07-31T11:52:39;3.43;;;2.10;;
4692;SDS011;11710;48.024;16.296;2023-07-31T11:55:07;2.80;;;2.33;;
4692;SDS011;11710;48.024;16.296;2023-07-31T11:57:37;3.10;;;2.30;;
4692;SDS011;11710;48.024;16.296;2023-07-31T12:00:07;2.03;;;1.83;;
4692;SDS011;11710;48.024;16.296;2023-07-31T12:02:36;2.50;;;2.30;;
4692;SDS011;11710;48.024;16.296;2023-07-31T12:05:05;2.60;;;2.40;;
4692;SDS011;11710;48.024;16.296;2023-07-31T12:07:43;4.20;;;2.90;;
4692;SDS011;11710;48.024;16.296;2023-07-31T12:10:11;2.40;;;2.20;;
4692;SDS011;11710;48.024;16.296;2023-07-31T12:12:38;3.83;;;2.73;;
4692;SDS011;11710;48.024;16.296;2023-07-31T12:15:15;2.20;;;2.00;;
4692;SDS011;11710;48.024;16.296;2023-07-31T12:17:42;2.53;;;2.33;;
4692;SDS011;11710;48.024;16.296;2023-07-31T12:20:10;5.10;;;2.70;;
4692;SDS011;11710;48.024;16.296;2023-07-31T12:22:38;2.90;;;2.23;;
4692;SDS011;11710;48.024;16.296;2023-07-31T12:25:05;2.20;;;2.00;;
4692;SDS011;11710;48.024;16.296;2023-07-31T12:27:33;3.30;;;2.50;;
4692;SDS011;11710;48.024;16.296;2023-07-31T12:30:00;3.03;;;2.50;;
4692;SDS011;11710;48.024;16.296;2023-07-31T12:32:30;3.87;;;2.83;;
4692;SDS011;11710;48.024;16.296;2023-07-31T12:34:59;3.90;;;2.40;;
4692;SDS011;11710;48.024;16.296;2023-07-31T12:37:28;2.67;;;2.40;;
4692;SDS011;11710;48.024;16.296;2023-07-31T12:39:57;6.33;;;2.70;;
4692;SDS011;11710;48.024;16.296;2023-07-31T12:42:30;2.63;;;2.23;;
4692;SDS011;11710;48.024;16.296;2023-07-31T12:44:58;2.30;;;2.10;;
4692;SDS011;11710;48.024;16.296;2023-07-31T12:47:25;3.50;;;2.30;;
4692;SDS011;11710;48.024;16.296;2023-07-31T12:49:54;2.67;;;1.93;;
4692;SDS011;11710;48.024;16.296;2023-07-31T12:52:22;2.73;;;2.50;;
4692;SDS011;11710;48.024;16.296;2023-07-31T12:54:49;4.60;;;2.63;;
4692;SDS011;11710;48.024;16.296;2023-07-31T12:57:16;3.30;;;2.33;;
4692;SDS011;11710;48.024;16.296;2023-07-31T12:59:45;3.47;;;2.60;;
4692;SDS011;11710;48.024;16.296;2023-07-31T13:02:12;2.63;;;2.43;;
4692;SDS011;11710;48.024;16.296;2023-07-31T13:04:40;3.83;;;2.77;;
4692;SDS011;11710;48.024;16.296;2023-07-31T13:07:08;4.20;;;2.80;;
4692;SDS011;11710;48.024;16.296;2023-07-31T13:09:36;4.00;;;2.47;;
4692;SDS011;11710;48.024;16.296;2023-07-31T13:12:04;3.07;;;2.33;;
4692;SDS011;11710;48.024;16.296;2023-07-31T13:14:32;3.83;;;2.60;;
4692;SDS011;11710;48.024;16.296;2023-07-31T13:16:59;2.90;;;2.60;;
4692;SDS011;11710;48.024;16.296;2023-07-31T13:19:27;4.37;;;2.77;;
4692;SDS011;11710;48.024;16.296;2023-07-31T13:21:54;4.20;;;2.50;;
4692;SDS011;11710;48.024;16.296;2023-07-31T13:24:23;2.30;;;2.10;;
4692;SDS011;11710;48.024;16.296;2023-07-31T13:26:51;4.13;;;2.70;;
4692;SDS011;11710;48.024;16.296;2023-07-31T13:29:18;3.70;;;2.70;;
4692;SDS011;11710;48.024;16.296;2023-07-31T13:31:47;3.00;;;2.73;;
4692;SDS011;11710;48.024;16.296;2023-07-31T13:34:14;3.50;;;2.53;;
4692;SDS011;11710;48.024;16.296;2023-07-31T13:36:42;4.47;;;2.67;;
4692;SDS011;11710;48.024;16.296;2023-07-31T13:39:09;3.00;;;2.53;;
4692;SDS011;11710;48.024;16.296;2023-07-31T13:41:38;2.93;;;2.50;;
4692;SDS011;11710;48.024;16.296;2023-07-31T13:44:05;4.93;;;3.50;;
4692;SDS011;11710;48.024;16.296;2023-07-31T13:46:33;3.47;;;2.83;;
4692;SDS011;11710;48.024;16.296;2023-07-31T13:49:00;3.30;;;2.27;;
4692;SDS011;11710;48.024;16.296;2023-07-31T13:51:28;2.73;;;2.43;;
4692;SDS011;11710;48.024;16.296;2023-07-31T13:53:55;2.70;;;2.47;;
4692;SDS011;11710;48.024;16.296;2023-07-31T13:56:23;3.70;;;2.57;;
4692;SDS011;11710;48.024;16.296;2023-07-31T13:58:51;2.57;;;2.37;;
4692;SDS011;11710;48.024;16.296;2023-07-31T14:01:19;2.77;;;2.50;;
4692;SDS011;11710;48.024;16.296;2023-07-31T14:03:46;2.67;;;2.47;;
4692;SDS011;11710;48.024;16.296;2023-07-31T14:06:14;2.73;;;2.40;;
4692;SDS011;11710;48.024;16.296;2023-07-31T14:08:41;12.67;;;2.90;;
4692;SDS011;11710;48.024;16.296;2023-07-31T14:11:09;3.47;;;2.50;;
4692;SDS011;11710;48.024;16.296;2023-07-31T14:13:36;2.80;;;2.40;;
4692;SDS011;11710;48.024;16.296;2023-07-31T14:16:05;3.53;;;2.37;;
4692;SDS011;11710;48.024;16.296;2023-07-31T14:18:32;4.10;;;2.60;;
4692;SDS011;11710;48.024;16.296;2023-07-31T14:21:00;2.60;;;2.13;;
4692;SDS011;11710;48.024;16.296;2023-07-31T14:23:27;4.57;;;2.70;;
4692;SDS011;11710;48.024;16.296;2023-07-31T14:25:55;2.67;;;2.40;;
4692;SDS011;11710;48.024;16.296;2023-07-31T14:28:22;2.87;;;2.33;;
4692;SDS011;11710;48.024;16.296;2023-07-31T14:30:50;3.73;;;2.73;;
4692;SDS011;11710;48.024;16.296;2023-07-31T14:33:18;2.57;;;2.37;;
4692;SDS011;11710;48.024;16.296;2023-07-31T14:35:46;3.90;;;2.40;;
4692;SDS011;11710;48.024;16.296;2023-07-31T14:38:13;7.23;;;2.80;;
4692;SDS011;11710;48.024;16.296;2023-07-31T14:40:41;5.17;;;2.30;;
4692;SDS011;11710;48.024;16.296;2023-07-31T14:43:08;3.63;;;2.77;;
4692;SDS011;11710;48.024;16.296;2023-07-31T14:45:36;3.30;;;2.50;;
4692;SDS011;11710;48.024;16.296;2023-07-31T14:48:03;4.03;;;2.63;;
4692;SDS011;11710;48.024;16.296;2023-07-31T14:50:32;5.60;;;2.73;;
4692;SDS011;11710;48.024;16.296;2023-07-31T14:53:00;3.40;;;2.87;;
4692;SDS011;11710;48.024;16.296;2023-07-31T14:55:27;6.60;;;3.20;;
4692;SDS011;11710;48.024;16.296;2023-07-31T14:57:55;7.50;;;2.50;;
4692;SDS011;11710;48.024;16.296;2023-07-31T15:00:22;3.00;;;2.67;;
4692;SDS011;11710;48.024;16.296;2023-07-31T15:02:51;2.80;;;2.60;;
4692;SDS011;11710;48.024;16.296;2023-07-31T15:05:19;3.27;;;2.57;;
4692;SDS011;11710;48.024;16.296;2023-07-31T15:07:48;2.80;;;2.47;;
4692;SDS011;11710;48.024;16.296;2023-07-31T15:10:16;3.03;;;2.57;;
4692;SDS011;11710;48.024;16.296;2023-07-31T15:12:43;2.53;;;2.20;;
4692;SDS011;11710;48.024;16.296;2023-07-31T15:15:10;3.33;;;2.70;;
4692;SDS011;11710;48.024;16.296;2023-07-31T15:17:38;3.00;;;2.60;;
4692;SDS011;11710;48.024;16.296;2023-07-31T15:20:06;2.80;;;2.60;;
4692;SDS011;11710;48.024;16.296;2023-07-31T15:22:34;3.70;;;2.80;;
4692;SDS011;11710;48.024;16.296;2023-07-31T15:25:03;8.17;;;2.27;;
4692;SDS011;11710;48.024;16.296;2023-07-31T15:27:30;3.40;;;2.10;;
4692;SDS011;11710;48.024;16.296;2023-07-31T15:29:58;3.83;;;2.47;;
4692;SDS011;11710;48.024;16.296;2023-07-31T15:32:25;2.90;;;2.37;;
4692;SDS011;11710;48.024;16.296;2023-07-31T15:34:52;5.63;;;2.77;;
4692;SDS011;11710;48.024;16.296;2023-07-31T15:37:20;5.23;;;2.20;;
4692;SDS011;11710;48.024;16.296;2023-07-31T15:39:47;3.70;;;2.60;;
4692;SDS011;11710;48.024;16.296;2023-07-31T15:42:16;2.90;;;2.57;;
4692;SDS011;11710;48.024;16.296;2023-07-31T15:44:44;2.70;;;2.30;;
4692;SDS011;11710;48.024;16.296;2023-07-31T15:47:11;4.63;;;2.80;;
4692;SDS011;11710;48.024;16.296;2023-07-31T15:49:39;2.80;;;2.23;;
4692;SDS011;11710;48.024;16.296;2023-07-31T15:52:06;3.33;;;2.47;;
4692;SDS011;11710;48.024;16.296;2023-07-31T15:54:34;2.57;;;2.37;;
4692;SDS011;11710;48.024;16.296;2023-07-31T15:57:01;4.17;;;2.53;;
4692;SDS011;11710;48.024;16.296;2023-07-31T15:59:30;5.40;;;2.67;;
4692;SDS011;11710;48.024;16.296;2023-07-31T16:01:57;6.00;;;2.73;;
4692;SDS011;11710;48.024;16.296;2023-07-31T16:04:25;3.63;;;2.63;;
4692;SDS011;11710;48.024;16.296;2023-07-31T16:06:52;3.00;;;2.70;;
4692;SDS011;11710;48.024;16.296;2023-07-31T16:09:20;2.57;;;2.37;;
4692;SDS011;11710;48.024;16.296;2023-07-31T16:11:47;3.80;;;2.70;;
4692;SDS011;11710;48.024;16.296;2023-07-31T16:14:14;4.50;;;2.87;;
4692;SDS011;11710;48.024;16.296;2023-07-31T16:16:43;4.33;;;2.87;;
4692;SDS011;11710;48.024;16.296;2023-07-31T16:19:12;4.13;;;2.50;;
4692;SDS011;11710;48.024;16.296;2023-07-31T16:21:40;3.17;;;2.87;;
4692;SDS011;11710;48.024;16.296;2023-07-31T16:24:07;4.23;;;2.83;;
4692;SDS011;11710;48.024;16.296;2023-07-31T16:26:35;3.70;;;2.87;;
4692;SDS011;11710;48.024;16.296;2023-07-31T16:29:02;3.03;;;2.77;;
4692;SDS011;11710;48.024;16.296;2023-07-31T16:31:30;3.93;;;2.77;;
4692;SDS011;11710;48.024;16.296;2023-07-31T16:33:59;3.43;;;2.90;;
4692;SDS011;11710;48.024;16.296;2023-07-31T16:36:26;3.73;;;2.80;;
4692;SDS011;11710;48.024;16.296;2023-07-31T16:38:54;4.13;;;2.90;;
4692;SDS011;11710;48.024;16.296;2023-07-31T16:41:21;4.50;;;3.27;;
4692;SDS011;11710;48.024;16.296;2023-07-31T16:43:49;4.33;;;2.97;;
4692;SDS011;11710;48.024;16.296;2023-07-31T16:46:16;3.63;;;3.30;;
4692;SDS011;11710;48.024;16.296;2023-07-31T16:48:44;5.03;;;3.80;;
4692;SDS011;11710;48.024;16.296;2023-07-31T16:51:13;4.93;;;3.27;;
4692;SDS011;11710;48.024;16.296;2023-07-31T16:53:40;5.17;;;3.57;;
4692;SDS011;11710;48.024;16.296;2023-07-31T16:56:09;4.67;;;3.20;;
4692;SDS011;11710;48.024;16.296;2023-07-31T16:58:36;6.30;;;3.70;;
4692;SDS011;11710;48.024;16.296;2023-07-31T17:01:04;4.90;;;2.73;;
4692;SDS011;11710;48.024;16.296;2023-07-31T17:03:31;3.43;;;3.13;;
4692;SDS011;11710;48.024;16.296;2023-07-31T17:05:59;3.87;;;3.30;;
4692;SDS011;11710;48.024;16.296;2023-07-31T17:08:27;4.40;;;3.43;;
4692;SDS011;11710;48.024;16.296;2023-07-31T17:10:55;4.23;;;3.00;;
4692;SDS011;11710;48.024;16.296;2023-07-31T17:13:22;3.73;;;3.43;;
4692;SDS011;11710;48.024;16.296;2023-07-31T17:15:50;7.47;;;3.70;;
4692;SDS011;11710;48.024;16.296;2023-07-31T17:18:17;3.83;;;3.43;;
4692;SDS011;11710;48.024;16.296;2023-07-31T17:20:45;3.27;;;2.97;;
4692;SDS011;11710;48.024;16.296;2023-07-31T17:23:12;3.80;;;3.40;;
4692;SDS011;11710;48.024;16.296;2023-07-31T17:25:41;5.77;;;3.70;;
4692;SDS011;11710;48.024;16.296;2023-07-31T17:28:08;4.13;;;3.73;;
4692;SDS011;11710;48.024;16.296;2023-07-31T17:30:36;5.23;;;3.40;;
4692;SDS011;11710;48.024;16.296;2023-07-31T17:33:03;3.60;;;3.00;;
4692;SDS011;11710;48.024;16.296;2023-07-31T17:35:30;5.10;;;3.67;;
4692;SDS011;11710;48.024;16.296;2023-07-31T17:37:58;5.50;;;3.47;;
4692;SDS011;11710;48.024;16.296;2023-07-31T17:40:25;4.27;;;3.40;;
4692;SDS011;11710;48.024;16.296;2023-07-31T17:42:55;4.53;;;3.60;;
4692;SDS011;11710;48.024;16.296;2023-07-31T17:45:22;5.07;;;3.67;;
4692;SDS011;11710;48.024;16.296;2023-07-31T17:47:50;3.90;;;3.40;;
4692;SDS011;11710;48.024;16.296;2023-07-31T17:50:17;6.47;;;3.50;;
4692;SDS011;11710;48.024;16.296;2023-07-31T17:52:45;5.50;;;4.03;;
4692;SDS011;11710;48.024;16.296;2023-07-31T17:55:12;4.43;;;3.67;;
4692;SDS011;11710;48.024;16.296;2023-07-31T17:57:39;5.00;;;3.70;;
4692;SDS011;11710;48.024;16.296;2023-07-31T18:00:09;4.33;;;3.57;;
4692;SDS011;11710;48.024;16.296;2023-07-31T18:02:37;5.87;;;3.60;;
4692;SDS011;11710;48.024;16.296;2023-07-31T18:05:05;3.97;;;3.60;;
4692;SDS011;11710;48.024;16.296;2023-07-31T18:07:33;4.47;;;3.90;;
4692;SDS011;11710;48.024;16.296;2023-07-31T18:10:00;4.60;;;3.50;;
4692;SDS011;11710;48.024;16.296;2023-07-31T18:12:28;7.50;;;3.80;;
4692;SDS011;11710;48.024;16.296;2023-07-31T18:14:55;5.03;;;3.60;;
4692;SDS011;11710;48.024;16.296;2023-07-31T18:17:24;7.60;;;4.27;;
4692;SDS011;11710;48.024;16.296;2023-07-31T18:19:52;3.67;;;3.37;;
4692;SDS011;11710;48.024;16.296;2023-07-31T18:22:20;4.50;;;3.70;;
4692;SDS011;11710;48.024;16.296;2023-07-31T18:24:47;4.27;;;3.70;;
4692;SDS011;11710;48.024;16.296;2023-07-31T18:27:15;16.73;;;3.97;;
4692;SDS011;11710;48.024;16.296;2023-07-31T18:29:44;6.90;;;3.53;;
4692;SDS011;11710;48.024;16.296;2023-07-31T18:32:11;5.17;;;4.27;;
4692;SDS011;11710;48.024;16.296;2023-07-31T18:34:40;4.20;;;3.80;;
4692;SDS011;11710;48.024;16.296;2023-07-31T18:37:07;4.53;;;3.70;;
4692;SDS011;11710;48.024;16.296;2023-07-31T18:39:35;3.60;;;3.20;;
4692;SDS011;11710;48.024;16.296;2023-07-31T18:42:02;4.83;;;3.80;;
4692;SDS011;11710;48.024;16.296;2023-07-31T18:44:30;3.87;;;3.47;;
4692;SDS011;11710;48.024;16.296;2023-07-31T18:46:57;6.20;;;3.63;;
4692;SDS011;11710;48.024;16.296;2023-07-31T18:49:25;4.10;;;3.70;;
4692;SDS011;11710;48.024;16.296;2023-07-31T18:51:53;5.67;;;4.20;;
4692;SDS011;11710;48.024;16.296;2023-07-31T18:54:21;4.03;;;3.63;;
4692;SDS011;11710;48.024;16.296;2023-07-31T18:56:48;5.10;;;4.00;;